< < Back
Terminal Aerodrome Forecast


Current Version              Previous Versions:   1  2  3  4  5  6  7  8  9  

Terminal Aerodrome Forecast

718
FTUS42 KTAE 251120
TAFABY
TAF
KABY 251120Z 2512/2612 25005KT P6SM FEW050
     FM251800 27008KT P6SM TS BKN050CB
     FM252200 VRB03KT P6SM SCT050=



Latest METAR

383
SAUS70 KWBC 251500 RRK
MTRABY
METAR KABY 251453Z VRB05KT 10SM CLR 33/22 A3012 RMK AO2 SLP196 T03280217
50003


USA.gov is the U.S. government's official web portal to all federal, state and local government web resources and services.